Time,TemperatureF,DewpointF,PressureIn,WindDirection,WindDirectionDegrees,WindSpeedMPH,WindSpeedGustMPH,Humidity,HourlyPrecipIn,Conditions,Clouds,dailyrainin,SolarRadiationWatts/m^2,SoftwareType,DateUTC
2013-05-02 00:01:00,47.0,18.0,-100.00,ENE,65,4.0,6.0,31,0.00,,,-99.99,1.000000,,2013-05-02 07:01:00,
2013-05-02 00:02:00,45.0,21.0,-100.00,East,79,3.0,5.0,38,0.00,,,-99.99,1.000000,,2013-05-02 07:02:00,
2013-05-02 00:21:00,45.0,21.0,-100.00,East,79,3.0,5.0,38,0.00,,,-99.99,1.000000,,2013-05-02 07:21:00,
2013-05-02 00:32:00,45.0,21.0,-100.00,East,79,3.0,5.0,38,0.00,,,-99.99,1.000000,,2013-05-02 07:32:00,
2013-05-02 00:42:00,45.0,21.0,-100.00,East,79,3.0,5.0,38,0.00,,,-99.99,1.000000,,2013-05-02 07:42:00,
2013-05-02 00:52:00,45.0,21.0,-100.00,East,79,3.0,5.0,38,0.00,,,-99.99,1.000000,,2013-05-02 07:52:00,
2013-05-02 01:32:00,45.0,22.0,-100.00,NE,56,4.0,7.0,40,0.00,,,-99.99,1.000000,,2013-05-02 08:32:00,
2013-05-02 01:42:00,45.0,22.0,-100.00,NE,56,4.0,7.0,40,0.00,,,-99.99,1.000000,,2013-05-02 08:42:00,
2013-05-02 01:52:00,45.0,22.0,-100.00,NE,56,4.0,7.0,40,0.00,,,-99.99,1.000000,,2013-05-02 08:52:00,
2013-05-02 02:01:00,45.0,22.0,-100.00,NE,56,4.0,7.0,40,0.00,,,-99.99,1.000000,,2013-05-02 09:01:00,
2013-05-02 02:02:00,45.0,22.0,-100.00,East,79,5.0,9.0,40,0.00,,,0.00,1.000000,,2013-05-02 09:02:00,
2013-05-02 02:22:00,45.0,22.0,-100.00,East,79,5.0,9.0,40,0.00,,,0.00,1.000000,,2013-05-02 09:22:00,
2013-05-02 02:33:00,45.0,22.0,-100.00,East,79,5.0,9.0,40,0.00,,,0.00,1.000000,,2013-05-02 09:33:00,
2013-05-02 02:42:00,45.0,22.0,-100.00,East,79,5.0,9.0,40,0.00,,,0.00,1.000000,,2013-05-02 09:42:00,
2013-05-02 02:52:00,45.0,22.0,-100.00,East,79,5.0,9.0,40,0.00,,,0.00,1.000000,,2013-05-02 09:52:00,
2013-05-02 03:02:00,44.0,22.0,-100.00,East,80,4.0,7.0,42,0.00,,,0.00,1.000000,,2013-05-02 10:02:00,
2013-05-02 03:23:00,44.0,22.0,-100.00,East,80,4.0,7.0,42,0.00,,,0.00,1.000000,,2013-05-02 10:23:00,
2013-05-02 03:33:00,44.0,22.0,-100.00,East,80,4.0,7.0,42,0.00,,,0.00,1.000000,,2013-05-02 10:33:00,
2013-05-02 03:42:00,44.0,22.0,-100.00,East,80,4.0,7.0,42,0.00,,,0.00,1.000000,,2013-05-02 10:42:00,
2013-05-02 03:52:00,44.0,22.0,-100.00,East,80,4.0,7.0,42,0.00,,,0.00,1.000000,,2013-05-02 10:52:00,
2013-05-02 04:32:00,40.0,21.0,-100.00,SW,214,4.0,6.0,46,0.00,,,0.00,1.000000,,2013-05-02 11:32:00,
2013-05-02 04:42:00,40.0,21.0,-100.00,SW,214,4.0,6.0,46,0.00,,,0.00,1.000000,,2013-05-02 11:42:00,
2013-05-02 04:52:00,40.0,21.0,-100.00,SW,214,4.0,6.0,46,0.00,,,0.00,1.000000,,2013-05-02 11:52:00,
2013-05-02 05:01:00,40.0,21.0,-100.00,SW,214,4.0,6.0,46,0.00,,,0.00,1.000000,,2013-05-02 12:01:00,
2013-05-02 05:22:00,38.0,21.0,-100.00,SSE,159,4.0,6.0,50,0.00,,,0.00,1.000000,,2013-05-02 12:22:00,
2013-05-02 05:32:00,38.0,21.0,-100.00,SSE,159,4.0,6.0,50,0.00,,,0.00,1.000000,,2013-05-02 12:32:00,
2013-05-02 05:42:00,38.0,21.0,-100.00,SSE,159,4.0,6.0,50,0.00,,,0.00,1.000000,,2013-05-02 12:42:00,
2013-05-02 05:52:00,38.0,21.0,-100.00,SSE,159,4.0,6.0,50,0.00,,,0.00,1.000000,,2013-05-02 12:52:00,
2013-05-02 06:01:00,38.0,21.0,-100.00,SSE,159,4.0,6.0,50,0.00,,,0.00,1.000000,,2013-05-02 13:01:00,
2013-05-02 06:02:00,40.0,21.0,-100.00,SW,233,2.0,5.0,47,0.00,,,0.00,2.000000,,2013-05-02 13:02:00,
2013-05-02 06:32:00,40.0,21.0,-100.00,SW,233,2.0,5.0,47,0.00,,,0.00,2.000000,,2013-05-02 13:32:00,
2013-05-02 06:42:00,40.0,21.0,-100.00,SW,233,2.0,5.0,47,0.00,,,0.00,2.000000,,2013-05-02 13:42:00,
2013-05-02 06:52:00,40.0,21.0,-100.00,SW,233,2.0,5.0,47,0.00,,,0.00,2.000000,,2013-05-02 13:52:00,
2013-05-02 07:32:00,44.0,23.0,-100.00,WSW,247,4.0,5.0,43,0.00,,,0.00,67.000000,,2013-05-02 14:32:00,
2013-05-02 08:02:00,46.0,24.0,-100.00,WSW,254,5.0,8.0,41,-99.99,,,0.00,239.000000,,2013-05-02 15:02:00,
2013-05-02 08:33:00,46.0,24.0,-100.00,WSW,254,5.0,8.0,41,-99.99,,,0.00,239.000000,,2013-05-02 15:33:00,
2013-05-02 08:43:00,46.0,24.0,-100.00,WSW,254,5.0,8.0,41,-99.99,,,0.00,239.000000,,2013-05-02 15:43:00,
2013-05-02 09:02:00,52.0,23.0,-100.00,West,266,7.0,10.0,32,0.00,,,-99.99,430.000000,,2013-05-02 16:02:00,
2013-05-02 09:32:00,52.0,23.0,-100.00,West,266,7.0,10.0,32,0.00,,,-99.99,430.000000,,2013-05-02 16:32:00,
2013-05-02 09:43:00,52.0,23.0,-100.00,West,266,7.0,10.0,32,0.00,,,-99.99,430.000000,,2013-05-02 16:43:00,
2013-05-02 09:52:00,52.0,23.0,-100.00,West,266,7.0,10.0,32,0.00,,,-99.99,430.000000,,2013-05-02 16:52:00,
2013-05-02 10:32:00,59.0,16.0,-100.00,SE,145,7.0,15.0,18,0.00,,,0.00,614.000000,,2013-05-02 17:32:00,
2013-05-02 10:42:00,59.0,16.0,-100.00,SE,145,7.0,15.0,18,0.00,,,0.00,614.000000,,2013-05-02 17:42:00,
2013-05-02 10:52:00,59.0,16.0,-100.00,SE,145,7.0,15.0,18,0.00,,,0.00,614.000000,,2013-05-02 17:52:00,
2013-05-02 11:01:00,59.0,16.0,-100.00,SE,145,7.0,15.0,18,0.00,,,0.00,614.000000,,2013-05-02 18:01:00,
2013-05-02 11:32:00,63.0,16.0,-100.00,East,97,9.0,17.0,16,0.00,,,0.00,767.000000,,2013-05-02 18:32:00,
2013-05-02 11:42:00,63.0,16.0,-100.00,East,97,9.0,17.0,16,0.00,,,0.00,767.000000,,2013-05-02 18:42:00,
2013-05-02 11:52:00,63.0,16.0,-100.00,East,97,9.0,17.0,16,0.00,,,0.00,767.000000,,2013-05-02 18:52:00,
2013-05-02 12:01:00,63.0,16.0,-100.00,East,97,9.0,17.0,16,0.00,,,0.00,767.000000,,2013-05-02 19:01:00,
2013-05-02 12:22:00,67.0,15.0,-100.00,ESE,122,7.0,16.0,13,0.00,,,0.00,884.000000,,2013-05-02 19:22:00,
2013-05-02 12:32:00,67.0,15.0,-100.00,ESE,122,7.0,16.0,13,0.00,,,0.00,884.000000,,2013-05-02 19:32:00,
2013-05-02 12:42:00,67.0,15.0,-100.00,ESE,122,7.0,16.0,13,0.00,,,0.00,884.000000,,2013-05-02 19:42:00,
2013-05-02 12:52:00,67.0,15.0,-100.00,ESE,122,7.0,16.0,13,0.00,,,0.00,884.000000,,2013-05-02 19:52:00,
2013-05-02 13:01:00,67.0,15.0,-100.00,ESE,122,7.0,16.0,13,0.00,,,0.00,884.000000,,2013-05-02 20:01:00,
2013-05-02 13:32:00,69.0,14.0,-100.00,SSE,163,6.0,15.0,12,0.00,,,0.00,947.000000,,2013-05-02 20:32:00,
2013-05-02 13:42:00,69.0,14.0,-100.00,SSE,163,6.0,15.0,12,0.00,,,0.00,947.000000,,2013-05-02 20:42:00,
2013-05-02 13:52:00,69.0,14.0,-100.00,SSE,163,6.0,15.0,12,0.00,,,0.00,947.000000,,2013-05-02 20:52:00,
2013-05-02 14:01:00,69.0,14.0,-100.00,SSE,163,6.0,15.0,12,0.00,,,0.00,947.000000,,2013-05-02 21:01:00,
2013-05-02 14:02:00,70.0,23.0,-100.00,NNE,20,9.0,16.0,17,0.00,,,0.00,936.000000,,2013-05-02 21:02:00,
2013-05-02 14:21:00,70.0,23.0,-100.00,NNE,20,9.0,16.0,17,0.00,,,0.00,936.000000,,2013-05-02 21:21:00,
2013-05-02 14:33:00,70.0,23.0,-100.00,NNE,20,9.0,16.0,17,0.00,,,0.00,936.000000,,2013-05-02 21:33:00,
2013-05-02 14:42:00,70.0,23.0,-100.00,NNE,20,9.0,16.0,17,0.00,,,0.00,936.000000,,2013-05-02 21:42:00,
2013-05-02 14:53:00,70.0,23.0,-100.00,NNE,20,9.0,16.0,17,0.00,,,0.00,936.000000,,2013-05-02 21:53:00,
2013-05-02 15:02:00,72.0,23.0,-100.00,NNW,343,8.0,18.0,16,0.00,,,0.00,897.000000,,2013-05-02 22:02:00,
2013-05-02 15:33:00,72.0,23.0,-100.00,NNW,343,8.0,18.0,16,0.00,,,0.00,897.000000,,2013-05-02 22:33:00,
2013-05-02 15:42:00,72.0,23.0,-100.00,NNW,343,8.0,18.0,16,0.00,,,0.00,897.000000,,2013-05-02 22:42:00,
2013-05-02 15:52:00,72.0,23.0,-100.00,NNW,343,8.0,18.0,16,0.00,,,0.00,897.000000,,2013-05-02 22:52:00,
2013-05-02 16:22:00,72.0,23.0,-100.00,NNW,328,9.0,17.0,16,0.00,,,0.00,794.000000,,2013-05-02 23:22:00,
2013-05-02 16:32:00,72.0,23.0,-100.00,NNW,328,9.0,17.0,16,0.00,,,0.00,794.000000,,2013-05-02 23:32:00,
2013-05-02 16:42:00,72.0,23.0,-100.00,NNW,328,9.0,17.0,16,0.00,,,0.00,794.000000,,2013-05-02 23:42:00,
2013-05-02 16:52:00,72.0,23.0,-100.00,NNW,328,9.0,17.0,16,0.00,,,0.00,794.000000,,2013-05-02 23:52:00,
2013-05-02 17:01:00,72.0,23.0,-100.00,NNW,328,9.0,17.0,16,0.00,,,0.00,794.000000,,2013-05-03 00:01:00,
2013-05-02 17:22:00,73.0,23.0,-100.00,North,354,8.0,18.0,15,0.00,,,0.00,658.000000,,2013-05-03 00:22:00,
2013-05-02 17:32:00,73.0,23.0,-100.00,North,354,8.0,18.0,15,0.00,,,0.00,658.000000,,2013-05-03 00:32:00,
2013-05-02 17:42:00,73.0,23.0,-100.00,North,354,8.0,18.0,15,0.00,,,0.00,658.000000,,2013-05-03 00:42:00,
2013-05-02 17:52:00,73.0,23.0,-100.00,North,354,8.0,18.0,15,0.00,,,0.00,658.000000,,2013-05-03 00:52:00,
2013-05-02 18:01:00,73.0,23.0,-100.00,North,354,8.0,18.0,15,0.00,,,0.00,658.000000,,2013-05-03 01:01:00,
2013-05-02 18:21:00,70.0,22.0,-100.00,North,358,9.0,13.0,16,0.00,,,0.00,340.000000,,2013-05-03 01:21:00,
2013-05-02 18:32:00,70.0,22.0,-100.00,North,358,9.0,13.0,16,0.00,,,0.00,340.000000,,2013-05-03 01:32:00,
2013-05-02 18:42:00,70.0,22.0,-100.00,North,358,9.0,13.0,16,0.00,,,0.00,340.000000,,2013-05-03 01:42:00,
2013-05-02 18:52:00,70.0,22.0,-100.00,North,358,9.0,13.0,16,0.00,,,0.00,340.000000,,2013-05-03 01:52:00,
2013-05-02 19:01:00,70.0,22.0,-100.00,North,358,9.0,13.0,16,0.00,,,0.00,340.000000,,2013-05-03 02:01:00,
2013-05-02 19:22:00,68.0,23.0,-100.00,North,359,9.0,14.0,18,0.00,,,0.00,230.000000,,2013-05-03 02:22:00,
2013-05-02 19:32:00,68.0,23.0,-100.00,North,359,9.0,14.0,18,0.00,,,0.00,230.000000,,2013-05-03 02:32:00,
2013-05-02 19:42:00,68.0,23.0,-100.00,North,359,9.0,14.0,18,0.00,,,0.00,230.000000,,2013-05-03 02:42:00,
2013-05-02 19:52:00,68.0,23.0,-100.00,North,359,9.0,14.0,18,0.00,,,0.00,230.000000,,2013-05-03 02:52:00,
2013-05-02 20:01:00,68.0,23.0,-100.00,North,359,9.0,14.0,18,0.00,,,0.00,230.000000,,2013-05-03 03:01:00,
2013-05-02 20:21:00,63.0,19.0,-100.00,NNE,14,7.0,15.0,18,0.00,,,0.00,85.000000,,2013-05-03 03:21:00,
2013-05-02 20:33:00,63.0,19.0,-100.00,NNE,14,7.0,15.0,18,0.00,,,0.00,85.000000,,2013-05-03 03:33:00,
2013-05-02 20:43:00,63.0,19.0,-100.00,NNE,14,7.0,15.0,18,0.00,,,0.00,85.000000,,2013-05-03 03:43:00,
2013-05-02 20:53:00,63.0,19.0,-100.00,NNE,14,7.0,15.0,18,0.00,,,0.00,85.000000,,2013-05-03 03:53:00,
2013-05-02 21:02:00,58.0,22.0,-100.00,NE,56,5.0,12.0,25,0.00,,,0.00,3.000000,,2013-05-03 04:02:00,
2013-05-02 21:32:00,58.0,22.0,-100.00,NE,56,5.0,12.0,25,0.00,,,0.00,3.000000,,2013-05-03 04:32:00,
2013-05-02 21:43:00,58.0,22.0,-100.00,NE,56,5.0,12.0,25,0.00,,,0.00,3.000000,,2013-05-03 04:43:00,
2013-05-02 21:53:00,58.0,22.0,-100.00,NE,56,5.0,12.0,25,0.00,,,0.00,3.000000,,2013-05-03 04:53:00,
2013-05-02 22:22:00,57.0,24.0,-100.00,ENE,77,6.0,11.0,28,0.00,,,0.00,1.000000,,2013-05-03 05:22:00,
2013-05-02 22:32:00,57.0,24.0,-100.00,ENE,77,6.0,11.0,28,0.00,,,0.00,1.000000,,2013-05-03 05:32:00,
2013-05-02 22:42:00,57.0,24.0,-100.00,ENE,77,6.0,11.0,28,0.00,,,0.00,1.000000,,2013-05-03 05:42:00,
2013-05-02 22:52:00,57.0,24.0,-100.00,ENE,77,6.0,11.0,28,0.00,,,0.00,1.000000,,2013-05-03 05:52:00,
2013-05-02 23:01:00,57.0,24.0,-100.00,ENE,77,6.0,11.0,28,0.00,,,0.00,1.000000,,2013-05-03 06:01:00,
2013-05-02 23:32:00,53.0,25.0,-100.00,ENE,71,4.0,8.0,33,0.00,,,0.00,1.000000,,2013-05-03 06:32:00,
2013-05-02 23:42:00,53.0,25.0,-100.00,ENE,71,4.0,8.0,33,0.00,,,0.00,1.000000,,2013-05-03 06:42:00,
2013-05-02 23:52:00,53.0,25.0,-100.00,ENE,71,4.0,8.0,33,0.00,,,0.00,1.000000,,2013-05-03 06:52:00,